EGGP

Liverpool John Lennon Airport

Liverpool, United Kingdom
METAR EGGP 212320Z 33009KT 290V360 CAVOK 12/08 Q1031
Observed Flight Rules
Jun-21 @ 23:20 UTC (37 minutes ago) Visual Flight Rules
Wind Visibility Clouds
330° at 9 knots 10,000+ meters
  • Clear skies
Temperatures Readings
Current 12°C / 54°F
Dewpoint 8°C / 46°F
Humidity 77%
Altimeter 30.44" Hg
Pressure 1031 hPa
Elevation 26
METAR EGGP 212320Z 33009KT 290V360 CAVOK 12/08 Q1031
Observed Flight Rules
Jun-21 @ 23:20 UTC
(37 minutes ago)
VFR
Wind Visibility
330° at 9 knots 10,000+ meters
Clouds
  • Clear skies
Temperature Dewpoint
12°C / 54°F 8°C / 46°F
Humidity Altimeter Pressure
77% 30.44" Hg 1031 hPa